Time;durP1;ratioP1;P1;durP2;ratioP2;P2;SDS_P1;SDS_P2;PMS_P1;PMS_P2;Temp;Humidity;BMP_temperature;BMP_pressure;BME280_temperature;BME280_humidity;BME280_pressure;Samples;Min_cycle;Max_cycle;Signal;HPM_P1;HPM_P2
2022/09/01 00:00:12;;;;;;;33.67;23.77;;;;;;;25.07;74.46;100859.66;5004365;28;20049;-82
2022/09/01 00:02:38;;;;;;;35.53;25.27;;;;;;;25.07;74.93;100873.25;5004439;28;20218;-82
2022/09/01 00:05:06;;;;;;;31.70;22.05;;;;;;;25.08;73.90;100847.78;5004238;28;20543;-82
2022/09/01 00:07:34;;;;;;;33.58;20.17;;;;;;;24.99;74.42;100833.66;5002883;28;20051;-79
2022/09/01 00:10:04;;;;;;;31.35;21.67;;;;;;;25.09;74.13;100846.69;5003104;28;20099;-81
2022/09/01 00:12:31;;;;;;;30.00;21.40;;;;;;;25.18;74.18;100861.66;5002796;28;20157;-81
2022/09/01 00:14:58;;;;;;;32.72;21.52;;;;;;;25.09;74.69;100852.13;5002972;28;20171;-81
2022/09/01 00:17:25;;;;;;;33.42;24.48;;;;;;;25.03;74.87;100853.06;5004486;28;20305;-82
2022/09/01 00:19:52;;;;;;;31.63;21.30;;;;;;;24.74;74.31;100782.97;5003285;28;20052;-81
2022/09/01 00:22:19;;;;;;;35.38;24.10;;;;;;;25.17;74.48;100862.72;5002572;28;20057;-80
2022/09/01 00:24:46;;;;;;;30.65;21.23;;;;;;;24.87;75.09;100840.88;5002723;28;20527;-82
2022/09/01 00:27:12;;;;;;;31.05;21.60;;;;;;;24.98;75.29;100863.72;5002613;28;20507;-81
2022/09/01 00:29:39;;;;;;;34.63;22.48;;;;;;;24.69;75.67;100818.09;5004481;28;20531;-80
2022/09/01 00:32:10;;;;;;;35.03;22.30;;;;;;;24.93;76.00;100865.25;5002693;28;20052;-80
2022/09/01 00:34:37;;;;;;;33.05;21.73;;;;;;;24.97;76.70;100872.94;5003225;28;20576;-81
2022/09/01 00:37:07;;;;;;;41.78;24.23;;;;;;;24.84;77.63;100844.06;5004820;28;20159;-81
2022/09/01 00:39:34;;;;;;;41.67;27.85;;;;;;;24.91;77.78;100863.81;5002761;28;20148;-81
2022/09/01 00:42:01;;;;;;;42.65;28.85;;;;;;;24.92;79.02;100857.31;5003439;28;20139;-82
2022/09/01 00:44:30;;;;;;;38.95;28.63;;;;;;;24.91;79.73;100861.13;5007993;28;20111;-83
2022/09/01 00:46:58;;;;;;;40.42;27.40;;;;;;;24.86;79.54;100855.53;5006218;28;20060;-81
2022/09/01 00:49:29;;;;;;;39.28;27.30;;;;;;;24.77;78.72;100835.97;5006125;28;20460;-81
2022/09/01 00:52:05;;;;;;;42.83;26.88;;;;;;;24.65;78.85;100821.47;5006066;28;20183;-81
2022/09/01 00:54:36;;;;;;;38.97;26.63;;;;;;;24.68;78.28;100826.44;5006512;28;20064;-82
2022/09/01 00:57:04;;;;;;;33.60;24.70;;;;;;;24.51;79.05;100799.88;5006342;28;20571;-84
2022/09/01 00:59:31;;;;;;;34.53;23.05;;;;;;;24.84;79.30;100850.31;5007813;28;20592;-82
2022/09/01 01:01:58;;;;;;;39.25;23.60;;;;;;;24.83;79.91;100855.97;5005496;28;20520;-81
2022/09/01 01:04:25;;;;;;;45.65;28.77;;;;;;;24.79;79.97;100849.34;5005931;28;20076;-82
2022/09/01 01:07:01;;;;;;;39.17;26.27;;;;;;;24.07;79.86;100736.63;5004833;28;20077;-82
2022/09/01 01:09:34;;;;;;;42.90;28.48;;;;;;;24.74;80.31;100858.97;5005276;28;20050;-82
2022/09/01 01:12:04;;;;;;;39.90;26.98;;;;;;;24.34;79.93;100787.91;5007971;28;20299;-83
2022/09/01 01:14:35;;;;;;;36.95;23.10;;;;;;;24.72;79.95;100849.38;5006723;28;20159;-82
2022/09/01 01:17:02;;;;;;;27.85;20.63;;;;;;;24.49;78.99;100818.31;5007103;28;20497;-82
2022/09/01 01:23:01;;;;;;;24.25;18.88;;;;;;;24.67;78.47;100854.66;5007664;28;20064;-82
2022/09/01 01:25:33;;;;;;;26.70;18.98;;;;;;;24.64;77.92;100845.09;5024770;28;20060;-82
2022/09/01 01:28:17;;;;;;;22.40;16.50;;;;;;;24.51;76.35;100829.72;5008962;28;20054;-80
2022/09/01 01:30:51;;;;;;;21.63;15.50;;;;;;;23.28;76.11;100626.97;5004895;28;20429;-81
2022/09/01 01:33:24;;;;;;;20.63;15.85;;;;;;;23.97;75.93;100743.63;5004450;28;20163;-81
2022/09/01 01:35:52;;;;;;;22.35;16.85;;;;;;;24.59;76.18;100852.22;5004587;28;20444;-81
2022/09/01 01:38:21;;;;;;;23.83;13.82;;;;;;;24.68;76.04;100859.03;5006949;28;20286;-83
2022/09/01 01:40:50;;;;;;;22.90;16.25;;;;;;;24.52;76.40;100844.16;5005489;28;20077;-81
2022/09/01 01:43:20;;;;;;;22.27;16.38;;;;;;;24.30;76.13;100813.84;5004827;28;20061;-81
2022/09/01 01:45:51;;;;;;;23.65;14.98;;;;;;;24.45;76.25;100855.03;5004764;28;20056;-81
2022/09/01 01:48:21;;;;;;;18.75;14.07;;;;;;;24.49;76.54;100872.56;5006015;28;20160;-81
2022/09/01 01:50:51;;;;;;;20.13;16.20;;;;;;;24.52;76.49;100865.88;5005783;28;20131;-80
2022/09/01 01:53:18;;;;;;;18.60;13.00;;;;;;;24.42;75.88;100844.63;5004418;28;20239;-82
2022/09/01 01:55:49;;;;;;;26.92;14.80;;;;;;;24.44;76.20;100853.38;5004780;28;20139;-81
2022/09/01 01:58:21;;;;;;;19.67;13.68;;;;;;;24.57;75.73;100876.88;5005330;28;20511;-81
2022/09/01 02:00:50;;;;;;;16.85;13.38;;;;;;;24.37;77.04;100841.75;5004831;28;20328;-81
2022/09/01 02:03:20;;;;;;;19.33;14.10;;;;;;;24.44;77.68;100852.53;5005560;28;20151;-81
2022/09/01 02:05:49;;;;;;;17.90;14.17;;;;;;;24.30;77.67;100857.25;5006813;28;20057;-82
2022/09/01 02:08:21;;;;;;;20.35;16.42;;;;;;;24.34;78.84;100874.72;5004066;28;20834;-83
2022/09/01 02:10:50;;;;;;;21.15;15.70;;;;;;;24.23;78.13;100878.19;5003892;28;20064;-82
2022/09/01 02:13:19;;;;;;;24.13;14.88;;;;;;;23.81;78.40;100818.16;5005134;28;20167;-82
2022/09/01 02:15:52;;;;;;;22.05;15.90;;;;;;;24.19;78.69;100891.34;5005329;28;20053;-82
2022/09/01 02:18:33;;;;;;;18.77;14.68;;;;;;;23.64;78.36;100802.41;5004457;28;20050;-81
2022/09/01 02:21:00;;;;;;;24.10;18.23;;;;;;;23.76;78.01;100810.69;5004480;28;20061;-82
2022/09/01 02:23:28;;;;;;;23.85;15.90;;;;;;;23.99;78.47;100849.97;5004507;28;20129;-83
2022/09/01 02:26:01;;;;;;;24.58;17.92;;;;;;;23.76;79.23;100807.16;5006597;28;20283;-81
2022/09/01 02:28:48;;;;;;;20.73;15.52;;;;;;;24.02;78.16;100852.25;5005389;28;20061;-81
2022/09/01 02:31:21;;;;;;;17.48;12.52;;;;;;;24.35;76.48;100881.00;5004841;28;20254;-82
2022/09/01 02:33:48;;;;;;;15.85;12.25;;;;;;;24.39;76.34;100887.63;5006516;28;20160;-83
2022/09/01 02:36:18;;;;;;;17.67;13.85;;;;;;;24.06;76.33;100829.88;5004346;28;20084;-82
2022/09/01 02:38:47;;;;;;;17.80;14.30;;;;;;;24.27;77.90;100876.66;5004567;28;20045;-81
2022/09/01 02:41:21;;;;;;;18.85;15.60;;;;;;;23.30;78.41;100733.19;5003988;28;20192;-81
2022/09/01 02:43:49;;;;;;;19.42;13.63;;;;;;;24.11;79.03;100869.91;5004378;28;20053;-83
2022/09/01 02:46:16;;;;;;;18.67;14.75;;;;;;;24.14;79.22;100882.19;5004165;28;20158;-83
2022/09/01 02:48:44;;;;;;;13.63;11.90;;;;;;;24.17;78.18;100881.75;5004440;28;20412;-83
2022/09/01 02:51:17;;;;;;;14.10;12.20;;;;;;;24.20;78.02;100884.03;5003913;28;20053;-82
2022/09/01 02:53:48;;;;;;;14.82;11.98;;;;;;;23.97;78.34;100836.63;5004582;28;20049;-82
2022/09/01 02:56:17;;;;;;;15.35;11.68;;;;;;;24.21;79.46;100881.09;5004491;28;20064;-82
2022/09/01 02:58:45;;;;;;;12.93;11.57;;;;;;;24.17;79.22;100884.47;5004632;28;20147;-82
2022/09/01 03:01:19;;;;;;;16.50;11.27;;;;;;;24.12;78.71;100892.44;5004719;28;20584;-82
2022/09/01 03:03:50;;;;;;;15.68;12.55;;;;;;;23.99;78.93;100874.38;5004149;28;20759;-81
2022/09/01 03:06:22;;;;;;;22.33;12.35;;;;;;;23.67;79.31;100829.06;5005949;28;20527;-81
2022/09/01 03:08:51;;;;;;;16.58;12.73;;;;;;;23.97;78.63;100877.28;5006542;28;20331;-81
2022/09/01 03:11:18;;;;;;;14.98;11.63;;;;;;;24.03;78.95;100878.28;5003477;28;20130;-81
2022/09/01 03:13:45;;;;;;;14.23;11.93;;;;;;;23.72;79.67;100833.03;5004199;28;20056;-81
2022/09/01 03:16:12;;;;;;;18.17;14.23;;;;;;;23.89;79.90;100853.16;5003823;28;20057;-82
2022/09/01 03:18:41;;;;;;;18.40;12.00;;;;;;;23.75;80.16;100829.91;5003971;28;20054;-82
2022/09/01 03:21:14;;;;;;;17.77;12.57;;;;;;;23.95;80.03;100871.25;5003759;28;20061;-81
2022/09/01 03:23:44;;;;;;;13.98;12.48;;;;;;;23.98;79.91;100864.56;5003799;28;20537;-81
2022/09/01 03:26:13;;;;;;;14.88;10.75;;;;;;;23.58;79.52;100799.72;5005747;28;20053;-82
2022/09/01 03:28:40;;;;;;;17.27;10.80;;;;;;;23.91;79.49;100853.78;5009132;28;20802;-83
2022/09/01 03:31:07;;;;;;;13.40;10.48;;;;;;;23.68;78.66;100816.34;5005596;28;20339;-82
2022/09/01 03:33:35;;;;;;;12.77;11.00;;;;;;;23.18;79.12;100735.78;5003859;28;20050;-82
2022/09/01 03:36:04;;;;;;;15.88;11.18;;;;;;;23.28;79.02;100756.13;5002990;28;20108;-81
2022/09/01 03:38:42;;;;;;;12.10;10.05;;;;;;;23.91;79.40;100859.22;5006303;28;20056;-83
2022/09/01 03:41:11;;;;;;;13.85;11.73;;;;;;;23.42;79.77;100772.13;5003835;28;20059;-82
2022/09/01 03:43:39;;;;;;;15.68;12.15;;;;;;;23.57;79.68;100788.06;5004484;28;20060;-82
2022/09/01 03:46:20;;;;;;;15.07;12.00;;;;;;;23.92;79.36;100841.06;5003118;28;20073;-82
2022/09/01 03:48:53;;;;;;;17.08;14.65;;;;;;;23.30;78.34;100737.78;5002817;28;20159;-82
2022/09/01 03:51:22;;;;;;;16.35;12.68;;;;;;;23.94;79.00;100853.34;5003837;28;20057;-81
2022/09/01 03:53:53;;;;;;;16.75;11.88;;;;;;;23.96;77.96;100850.38;5004511;28;20164;-81
2022/09/01 03:56:24;;;;;;;11.35;9.82;;;;;;;23.91;77.53;100859.22;5005872;28;20560;-82
2022/09/01 03:58:55;;;;;;;15.63;9.57;;;;;;;23.91;76.05;100844.78;5003657;28;20229;-81
2022/09/01 04:01:23;;;;;;;13.93;9.05;;;;;;;23.94;75.07;100855.22;5003633;28;20045;-80
2022/09/01 04:03:50;;;;;;;8.77;7.85;;;;;;;24.04;74.25;100864.53;5001623;28;20477;-82
2022/09/01 04:06:18;;;;;;;10.77;7.72;;;;;;;23.98;73.87;100868.13;5001760;28;20535;-80
2022/09/01 04:08:45;;;;;;;15.73;7.72;;;;;;;23.81;74.18;100842.56;5003429;28;20619;-82
2022/09/01 04:11:17;;;;;;;8.90;7.03;;;;;;;23.88;74.37;100865.03;5001892;28;20092;-82
2022/09/01 04:13:46;;;;;;;10.75;7.25;;;;;;;23.52;74.43;100820.41;5002118;28;20638;-82
2022/09/01 04:19:14;;;;;;;9.82;7.35;;;;;;;23.29;74.38;100785.72;5009176;28;20115;-80
2022/09/01 04:21:42;;;;;;;8.52;7.00;;;;;;;23.52;74.43;100831.25;5008747;28;20076;-81
2022/09/01 04:24:11;;;;;;;11.00;7.13;;;;;;;23.66;74.71;100851.78;5007144;28;21027;-80
2022/09/01 04:26:39;;;;;;;9.85;6.72;;;;;;;23.50;74.09;100819.78;5005232;28;20568;-81
2022/09/01 04:29:07;;;;;;;9.82;7.13;;;;;;;23.34;74.60;100793.19;5023114;28;20085;-80
2022/09/01 04:31:37;;;;;;;14.25;6.95;;;;;;;23.65;74.09;100847.44;5022802;28;20057;-80
2022/09/01 04:34:12;;;;;;;10.32;6.97;;;;;;;23.27;73.97;100789.69;5015205;28;20091;-80
2022/09/01 04:36:42;;;;;;;9.50;7.20;;;;;;;23.54;74.55;100842.69;5005086;28;20140;-81
2022/09/01 04:39:11;;;;;;;7.82;6.03;;;;;;;23.53;73.53;100841.03;5007878;28;20410;-82
2022/09/01 04:41:41;;;;;;;9.02;7.00;;;;;;;23.50;73.19;100827.91;5005860;28;20053;-82
2022/09/01 04:44:08;;;;;;;9.93;7.15;;;;;;;23.42;72.94;100809.19;5003395;28;20062;-81
2022/09/01 04:46:41;;;;;;;9.25;7.20;;;;;;;23.07;72.62;100755.41;4987151;28;20057;-81
2022/09/01 04:49:09;;;;;;;10.70;6.43;;;;;;;23.55;72.72;100838.13;5014530;28;20076;-82
2022/09/01 04:51:45;;;;;;;9.95;5.88;;;;;;;23.44;73.22;100831.47;5005846;28;20064;-81
2022/09/01 04:54:19;;;;;;;10.95;6.25;;;;;;;23.37;73.39;100825.25;5006928;28;20060;-81
2022/09/01 04:56:49;;;;;;;12.25;6.88;;;;;;;23.42;74.13;100845.25;5006084;28;20045;-82
2022/09/01 04:59:19;;;;;;;13.93;7.07;;;;;;;23.20;73.53;100795.13;5006509;28;20494;-82
2022/09/01 05:01:49;;;;;;;10.02;6.43;;;;;;;23.57;72.42;100831.44;5005861;28;20078;-82
2022/09/01 05:04:21;;;;;;;10.20;5.78;;;;;;;23.46;72.97;100834.81;5006062;28;20049;-81
2022/09/01 05:06:54;;;;;;;9.65;6.00;;;;;;;23.44;73.23;100831.47;5005447;28;20156;-81
2022/09/01 05:09:23;;;;;;;10.98;5.88;;;;;;;23.36;73.41;100834.44;5004806;28;20306;-82
2022/09/01 05:11:51;;;;;;;12.60;6.45;;;;;;;23.42;73.50;100833.56;5003994;28;20060;-82
2022/09/01 05:14:21;;;;;;;8.38;6.28;;;;;;;23.30;73.00;100816.31;5004515;28;20053;-82
2022/09/01 05:16:49;;;;;;;9.50;6.03;;;;;;;23.46;73.59;100840.22;5004492;28;20211;-83
2022/09/01 05:19:19;;;;;;;8.32;6.72;;;;;;;23.29;72.56;100804.66;5006436;28;20457;-82
2022/09/01 05:21:47;;;;;;;8.60;6.40;;;;;;;23.02;72.43;100764.16;5006374;28;20056;-80
2022/09/01 05:24:20;;;;;;;8.95;6.45;;;;;;;23.42;73.36;100833.56;5006198;28;20174;-82
2022/09/01 05:26:49;;;;;;;9.93;5.90;;;;;;;23.32;73.47;100833.19;5006101;28;20049;-80
2022/09/01 05:29:16;;;;;;;7.78;6.97;;;;;;;23.52;73.12;100854.78;5005573;28;20046;-81
2022/09/01 05:31:46;;;;;;;8.00;6.45;;;;;;;23.51;73.20;100856.66;5007731;28;20076;-81
2022/09/01 05:34:25;;;;;;;11.13;7.45;;;;;;;23.64;72.50;100858.47;5011179;28;20049;-81
2022/09/01 05:36:56;;;;;;;9.15;7.28;;;;;;;23.55;73.21;100855.19;5008048;28;20247;-81
2022/09/01 05:39:24;;;;;;;19.75;12.07;;;;;;;23.57;72.44;100844.13;5005944;28;20061;-80
2022/09/01 05:41:52;;;;;;;17.35;12.27;;;;;;;23.50;72.16;100814.38;5022189;28;20053;-81
2022/09/01 05:44:23;;;;;;;17.77;12.07;;;;;;;23.09;72.53;100764.16;5010334;28;20788;-79
2022/09/01 05:46:51;;;;;;;18.30;11.65;;;;;;;23.62;73.01;100872.25;5005475;28;20056;-81
2022/09/01 05:49:18;;;;;;;23.65;14.40;;;;;;;23.50;73.35;100844.19;5006944;28;20053;-80
2022/09/01 05:51:48;;;;;;;23.02;14.50;;;;;;;23.59;73.33;100867.28;5004791;28;20545;-81
2022/09/01 05:54:21;;;;;;;21.35;15.40;;;;;;;23.61;73.69;100877.88;5005940;28;20191;-81
2022/09/01 05:56:49;;;;;;;21.38;14.80;;;;;;;23.66;73.55;100881.59;5007171;28;20172;-82
2022/09/01 05:59:19;;;;;;;31.73;18.92;;;;;;;23.63;73.67;100879.31;5021262;28;20409;-80
2022/09/01 06:01:52;;;;;;;23.50;16.58;;;;;;;23.00;74.19;100792.50;5005230;28;20065;-81
2022/09/01 06:04:19;;;;;;;22.67;15.73;;;;;;;23.54;74.08;100875.19;5006380;28;20200;-80
2022/09/01 06:06:48;;;;;;;22.10;16.33;;;;;;;23.52;74.29;100871.88;5005901;28;20572;-81
2022/09/01 06:09:39;;;;;;;24.02;17.45;;;;;;;23.70;73.70;100892.03;5005628;28;20590;-80
2022/09/01 06:12:07;;;;;;;28.58;18.98;;;;;;;23.77;73.49;100903.69;5005145;28;20089;-82
2022/09/01 06:14:34;;;;;;;29.17;17.95;;;;;;;23.77;73.46;100895.56;5004511;28;20131;-82
2022/09/01 06:17:02;;;;;;;28.33;18.55;;;;;;;23.73;73.31;100900.56;5005024;28;20116;-80
2022/09/01 06:19:32;;;;;;;31.08;19.85;;;;;;;23.66;74.24;100911.41;5005150;28;20428;-81
2022/09/01 06:22:03;;;;;;;32.58;20.25;;;;;;;23.35;73.99;100860.72;5006568;28;20049;-81
2022/09/01 06:24:29;;;;;;;34.03;20.00;;;;;;;23.70;73.44;100900.16;5005468;28;20143;-82
2022/09/01 06:26:57;;;;;;;33.20;19.10;;;;;;;23.77;73.43;100915.38;5004634;28;20586;-80
2022/09/01 06:29:24;;;;;;;29.88;21.17;;;;;;;23.83;73.06;100916.38;5004257;28;20093;-81
2022/09/01 06:31:51;;;;;;;30.65;20.38;;;;;;;23.79;72.63;100905.16;5006140;28;20064;-81
2022/09/01 06:34:18;;;;;;;34.10;20.90;;;;;;;23.66;72.18;100870.75;5006866;28;20046;-80
2022/09/01 06:36:48;;;;;;;30.25;18.83;;;;;;;23.72;72.84;100898.06;5004337;28;20049;-82
2022/09/01 06:39:18;;;;;;;25.50;18.95;;;;;;;22.61;72.42;100713.06;4990162;28;20053;-81
2022/09/01 06:41:51;;;;;;;28.30;18.93;;;;;;;23.67;73.05;100896.81;4984149;28;20166;-81
2022/09/01 06:44:23;;;;;;;35.83;19.85;;;;;;;23.59;72.91;100879.97;4985813;28;20469;-81
2022/09/01 06:46:51;;;;;;;31.45;18.00;;;;;;;23.86;72.36;100908.66;4997417;28;20172;-82
2022/09/01 06:49:20;;;;;;;27.08;19.67;;;;;;;23.67;72.49;100879.75;5005899;28;20253;-81
2022/09/01 06:51:50;;;;;;;24.00;18.50;;;;;;;23.23;72.04;100814.50;5004434;28;20148;-82
2022/09/01 06:54:18;;;;;;;30.83;18.00;;;;;;;23.52;72.35;100868.31;5004061;28;20670;-81
2022/09/01 06:56:47;;;;;;;30.70;19.33;;;;;;;23.94;71.87;100933.84;5004298;28;20053;-81
2022/09/01 06:59:19;;;;;;;27.73;16.95;;;;;;;23.92;71.14;100925.91;5004306;28;20509;-81
2022/09/01 07:01:47;;;;;;;28.15;16.33;;;;;;;23.74;70.74;100910.38;5003451;28;20225;-81
2022/09/01 07:04:20;;;;;;;18.00;11.60;;;;;;;23.92;69.70;100923.22;5003944;28;20053;-80
2022/09/01 07:06:51;;;;;;;;;;;;;;;23.96;69.33;100931.72;5004362;28;20438;-83
2022/09/01 07:09:30;;;;;;;17.67;13.48;;;;;;;24.01;69.18;100915.66;5003755;28;20486;-81
2022/09/01 07:12:18;;;;;;;17.27;12.15;;;;;;;24.10;68.48;100926.03;5005182;28;20471;-82
2022/09/01 07:14:54;;;;;;;26.20;11.80;;;;;;;24.24;67.92;100925.94;5004911;28;20053;-82
2022/09/01 07:17:41;;;;;;;15.75;11.55;;;;;;;24.20;67.45;100932.84;5003678;28;20064;-81
2022/09/01 07:20:10;;;;;;;23.00;11.88;;;;;;;24.21;67.24;100923.66;5004967;28;20061;-82
2022/09/01 07:22:57;;;;;;;18.05;12.02;;;;;;;24.27;67.07;100939.06;5004451;28;20052;-82
2022/09/01 07:25:40;;;;;;;17.25;12.77;;;;;;;24.29;66.94;100935.06;5005247;28;20056;-81
2022/09/01 07:28:28;;;;;;;20.63;13.60;;;;;;;24.29;67.28;100937.78;5004954;28;20628;-82
2022/09/01 07:31:04;;;;;;;19.15;12.15;;;;;;;24.21;66.96;100902.78;5003464;28;20053;-80
2022/09/01 07:33:53;;;;;;;19.05;11.35;;;;;;;24.05;66.50;100870.78;5005238;28;20152;-81
2022/09/01 07:36:41;;;;;;;13.45;10.15;;;;;;;24.30;66.57;100911.50;5004925;28;20091;-83
2022/09/01 07:39:30;;;;;;;14.82;9.02;;;;;;;24.40;66.68;100927.31;5025816;28;20111;-82
2022/09/01 07:42:20;;;;;;;13.77;9.52;;;;;;;24.41;64.68;100891.78;5025419;28;20120;-80
2022/09/01 07:45:09;;;;;;;17.40;9.40;;;;;;;24.44;64.94;100915.78;5025539;28;20049;-80
2022/09/01 07:47:53;;;;;;;14.95;8.95;;;;;;;24.57;65.50;100938.47;5006594;28;20050;-81
2022/09/01 07:50:22;;;;;;;15.38;9.32;;;;;;;24.69;64.71;100947.56;5024784;28;20046;-81
2022/09/01 07:53:11;;;;;;;15.88;10.85;;;;;;;24.45;64.80;100901.16;5029125;28;20042;-81
2022/09/01 07:55:40;;;;;;;15.43;10.55;;;;;;;24.71;65.12;100938.16;5029247;28;20049;-81
2022/09/01 07:58:10;;;;;;;16.30;10.27;;;;;;;24.56;65.00;100904.25;5045241;28;20142;-79
2022/09/01 08:00:45;;;;;;;13.07;9.48;;;;;;;24.07;64.76;100809.84;5029402;28;20132;-79
2022/09/01 08:03:17;;;;;;;24.63;10.38;;;;;;;24.76;65.32;100921.19;5029943;28;20056;-80
2022/09/01 08:05:45;;;;;;;18.95;10.60;;;;;;;24.90;65.09;100932.75;5045172;28;20146;-80
2022/09/01 08:08:21;;;;;;;19.50;11.68;;;;;;;24.35;64.66;100841.16;5030428;28;20050;-80
2022/09/01 08:10:54;;;;;;;14.13;10.70;;;;;;;24.61;64.89;100860.97;5030089;28;20080;-80
2022/09/01 08:13:30;;;;;;;16.95;9.85;;;;;;;24.36;64.48;100809.41;5028901;28;20413;-81
2022/09/01 08:16:05;;;;;;;22.08;10.02;;;;;;;25.18;64.17;100935.03;5028450;28;20107;-80
2022/09/01 08:18:34;;;;;;;15.35;10.32;;;;;;;24.88;64.24;100897.69;5028918;28;20401;-81
2022/09/01 08:21:20;;;;;;;17.42;10.40;;;;;;;25.14;64.50;100933.78;5028408;28;20077;-81
2022/09/01 08:23:48;;;;;;;;;;;;;;;25.11;65.01;100939.66;5028906;28;20084;-81
2022/09/01 08:26:17;;;;;;;21.75;11.45;;;;;;;25.15;64.87;100944.41;5028435;28;19921;-80
2022/09/01 08:28:44;;;;;;;17.58;10.60;;;;;;;25.23;64.82;100948.75;5028239;28;20045;-82
2022/09/01 08:31:18;;;;;;;14.50;10.82;;;;;;;24.83;64.73;100878.53;5027903;28;20139;-81
2022/09/01 08:33:48;;;;;;;23.40;12.20;;;;;;;25.41;63.53;100957.97;5028557;28;20268;-82
2022/09/01 08:36:16;;;;;;;21.65;12.18;;;;;;;25.40;63.07;100967.19;5018972;28;20053;-80
2022/09/01 08:38:49;;;;;;;18.10;11.85;;;;;;;25.00;63.60;100905.06;5008331;28;20050;-80
2022/09/01 08:41:27;;;;;;;19.15;12.02;;;;;;;25.17;63.89;100960.50;5009510;28;20050;-81
2022/09/01 08:44:30;;;;;;;16.70;11.13;;;;;;;25.26;64.14;100956.44;5028134;28;20049;-80
2022/09/01 08:47:04;;;;;;;15.70;11.55;;;;;;;25.21;64.04;100952.75;4975938;28;20061;-81
2022/09/01 08:49:35;;;;;;;18.45;11.23;;;;;;;24.94;63.56;100896.78;5027858;28;20134;-80
2022/09/01 08:52:21;;;;;;;16.05;11.20;;;;;;;25.19;63.53;100952.16;5027718;28;20508;-81
2022/09/01 08:54:56;;;;;;;17.40;11.20;;;;;;;24.83;64.61;100932.84;5030697;28;20061;-81
2022/09/01 08:57:30;;;;;;;16.65;11.55;;;;;;;24.71;64.85;100908.28;5035262;28;20053;-82
2022/09/01 08:59:58;;;;;;;11.70;10.20;;;;;;;24.40;64.50;100860.28;5046954;28;20107;-81
2022/09/01 09:02:24;;;;;;;13.95;9.60;;;;;;;25.02;64.18;100977.13;5027665;28;20064;-80
2022/09/01 09:05:06;;;;;;;13.45;8.90;;;;;;;24.79;64.79;100964.19;5027277;28;20064;-80
2022/09/01 09:07:50;;;;;;;11.55;7.63;;;;;;;24.88;64.76;100984.59;5027996;28;20045;-81
2022/09/01 09:10:36;;;;;;;13.75;7.72;;;;;;;24.87;65.06;101001.09;5028703;28;20053;-81
2022/09/01 09:13:24;;;;;;;11.82;7.60;;;;;;;24.77;63.68;100998.88;5027231;28;20468;-80
2022/09/01 09:16:00;;;;;;;15.10;8.00;;;;;;;24.49;64.13;100970.25;5027482;28;20409;-81
2022/09/01 09:18:41;;;;;;;8.27;6.05;;;;;;;23.41;64.55;100789.41;5027703;28;20575;-81
2022/09/01 09:21:42;;;;;;;11.85;5.88;;;;;;;24.67;64.12;100993.09;5027514;28;20054;-81
2022/09/01 09:24:11;;;;;;;14.68;5.70;;;;;;;24.35;64.08;100936.09;5027356;28;20060;-81
2022/09/01 09:26:57;;;;;;;8.35;5.78;;;;;;;23.21;63.91;100762.41;5027410;28;20060;-82
2022/09/01 09:29:26;;;;;;;9.82;5.50;;;;;;;24.56;64.60;100985.66;5043731;28;20072;-82
2022/09/01 09:32:08;;;;;;;8.25;4.40;;;;;;;24.37;64.09;100960.28;5028517;28;20045;-80
2022/09/01 09:34:54;;;;;;;7.50;4.75;;;;;;;24.25;64.43;100962.88;5028446;28;20057;-81
2022/09/01 09:37:27;;;;;;;8.43;4.75;;;;;;;24.34;64.62;100982.44;5027068;28;20052;-80
2022/09/01 09:40:03;;;;;;;9.05;5.55;;;;;;;24.31;65.16;100983.69;5027270;28;20135;-81
2022/09/01 09:42:30;;;;;;;7.43;4.75;;;;;;;24.07;64.68;100948.16;5029268;28;20205;-81
2022/09/01 09:45:03;;;;;;;8.75;5.45;;;;;;;24.29;64.78;100974.94;5031377;28;20049;-81
2022/09/01 09:47:45;;;;;;;11.65;5.68;;;;;;;24.59;64.33;101002.34;5027841;28;20050;-78
2022/09/01 09:50:31;;;;;;;10.90;5.18;;;;;;;24.58;65.80;101010.69;5007073;28;20367;-82
2022/09/01 09:53:27;;;;;;;11.38;4.65;;;;;;;23.65;66.53;100876.41;5007736;28;20053;-80
2022/09/01 09:56:17;;;;;;;9.75;5.25;;;;;;;23.91;67.36;100945.97;5007662;28;20276;-80
2022/09/01 09:58:47;;;;;;;10.15;4.28;;;;;;;24.21;68.10;100995.03;5008353;28;20111;-80
2022/09/01 10:01:24;;;;;;;5.80;3.60;;;;;;;24.19;68.11;100990.88;5006081;28;20506;-82
2022/09/01 10:03:55;;;;;;;7.07;3.45;;;;;;;24.01;68.00;100946.31;5003637;28;20163;-80
2022/09/01 10:06:37;;;;;;;5.93;3.40;;;;;;;23.86;68.28;100933.06;5004789;28;20050;-80
2022/09/01 10:09:26;;;;;;;7.30;4.00;;;;;;;24.21;68.17;100995.03;5007970;28;20076;-80
2022/09/01 10:11:56;;;;;;;13.13;3.72;;;;;;;24.02;68.20;100956.09;5004586;28;20049;-80
2022/09/01 10:14:28;;;;;;;7.25;3.33;;;;;;;23.93;68.09;100932.16;5006510;28;20437;-82
2022/09/01 10:17:19;;;;;;;21.67;6.22;;;;;;;24.36;71.06;100985.75;5020598;28;20045;-82
2022/09/01 10:19:55;;;;;;;;;;;;;;;24.33;73.53;100987.03;5007251;28;20085;-82
2022/09/01 10:22:22;;;;;;;11.30;4.63;;;;;;;24.31;71.11;100979.09;5006526;28;19929;-80
2022/09/01 10:24:49;;;;;;;13.00;4.88;;;;;;;24.25;72.93;100979.16;5006542;28;20050;-81
2022/09/01 10:27:24;;;;;;;11.93;4.57;;;;;;;24.21;72.41;100969.78;5006478;28;20065;-81
2022/09/01 10:30:18;;;;;;;6.90;4.22;;;;;;;24.18;74.57;100983.78;5006229;28;20456;-81
2022/09/01 10:32:49;;;;;;;7.25;4.57;;;;;;;24.14;75.63;100979.84;5006361;28;20045;-81
2022/09/01 10:35:28;;;;;;;7.38;4.85;;;;;;;24.15;76.23;100979.59;5022342;28;20054;-80
2022/09/01 10:38:09;;;;;;;6.65;4.45;;;;;;;23.27;76.50;100847.38;5020781;28;20049;-82
2022/09/01 10:40:47;;;;;;;12.55;4.18;;;;;;;24.07;77.64;100983.41;5026177;28;20096;-81
2022/09/01 10:43:43;;;;;;;8.82;4.38;;;;;;;24.23;77.01;100997.53;5026026;28;20095;-80
2022/09/01 10:46:19;;;;;;;9.68;5.28;;;;;;;24.30;73.64;100993.72;5025821;28;20057;-83
2022/09/01 10:49:24;;;;;;;10.05;6.13;;;;;;;24.28;75.09;100990.41;5027299;28;20292;-79
2022/09/01 10:51:56;;;;;;;7.95;5.43;;;;;;;24.05;75.35;100933.16;5025885;28;20486;-78
2022/09/01 10:54:37;;;;;;;9.02;4.65;;;;;;;23.37;74.62;100831.50;5025800;28;20061;-78
2022/09/01 10:57:53;;;;;;;8.18;4.43;;;;;;;24.41;72.24;100986.75;5025975;28;20136;-81
2022/09/01 11:00:27;;;;;;;9.05;4.50;;;;;;;24.60;72.41;100986.88;5025456;28;20053;-79
2022/09/01 11:03:11;;;;;;;6.82;4.63;;;;;;;24.63;72.48;100991.88;5024125;28;20060;-78
2022/09/01 11:06:01;;;;;;;9.30;4.55;;;;;;;24.53;71.66;100974.19;5025811;28;20140;-81
2022/09/01 11:08:59;;;;;;;11.35;4.63;;;;;;;24.01;69.11;100877.72;5025858;28;20041;-81
2022/09/01 11:11:44;;;;;;;5.82;4.45;;;;;;;24.66;70.06;100981.41;5025843;28;20115;-80
2022/09/01 11:14:25;;;;;;;12.68;4.70;;;;;;;24.58;71.93;100945.56;5025653;28;20050;-82
2022/09/01 11:17:16;;;;;;;11.77;5.18;;;;;;;24.95;70.18;100963.63;5022911;28;20515;-82
2022/09/01 11:19:45;;;;;;;6.15;4.95;;;;;;;25.10;70.18;100966.00;5025540;28;20149;-80
2022/09/01 11:22:18;;;;;;;12.35;5.10;;;;;;;24.94;69.47;100917.69;5024825;28;20481;-80
2022/09/01 11:25:07;;;;;;;11.50;6.35;;;;;;;25.25;68.87;100952.09;5024665;28;20053;-80
2022/09/01 11:27:47;;;;;;;7.35;4.20;;;;;;;25.08;67.71;100924.66;5024817;28;20049;-79
2022/09/01 11:30:20;;;;;;;4.18;3.38;;;;;;;25.45;67.36;100987.19;5025061;28;20072;-79
2022/09/01 11:32:51;;;;;;;5.05;3.55;;;;;;;25.31;67.15;100950.34;5025020;28;20051;-82
2022/09/01 11:35:20;;;;;;;;;;;;;;;25.49;66.98;100974.00;5025921;28;20062;-81
2022/09/01 11:37:48;;;;;;;5.70;3.70;;;;;;;25.82;67.66;100970.03;5025875;28;19921;-80
2022/09/01 11:40:44;;;;;;;9.10;3.88;;;;;;;26.01;64.53;100972.53;5025008;28;20053;-81
2022/09/01 11:43:15;;;;;;;6.65;3.75;;;;;;;25.99;65.84;100980.09;5023886;28;20053;-80
2022/09/01 11:46:20;;;;;;;4.75;3.63;;;;;;;25.96;63.97;100983.25;5026857;28;20115;-81
2022/09/01 11:48:48;;;;;;;5.82;3.67;;;;;;;25.79;65.42;100955.00;5027031;28;20054;-80